Time;durP1;ratioP1;P1;durP2;ratioP2;P2;SDS_P1;SDS_P2;PMS_P1;PMS_P2;Temp;Humidity;BMP_temperature;BMP_pressure;BME280_temperature;BME280_humidity;BME280_pressure;Samples;Min_cycle;Max_cycle;Signal;HPM_P1;HPM_P2
2021/06/11 00:02:03;;;;;;;12.77;8.30;;;18.90;33.80;;;;;;5016651;28;20388;-75
2021/06/11 00:04:29;;;;;;;13.55;9.10;;;19.00;33.60;;;;;;5015645;28;20409;-76
2021/06/11 00:06:54;;;;;;;17.03;9.40;;;19.20;34.80;;;;;;5015439;28;20388;-77
2021/06/11 00:09:20;;;;;;;16.43;9.50;;;19.20;36.30;;;;;;4994754;28;20409;-76
2021/06/11 00:11:45;;;;;;;18.88;10.38;;;19.40;37.10;;;;;;5013515;28;20405;-77
2021/06/11 00:14:12;;;;;;;16.83;10.18;;;19.40;37.80;;;;;;4995755;28;20548;-77
2021/06/11 00:16:37;;;;;;;15.05;9.57;;;19.30;39.20;;;;;;5013436;28;20838;-77
2021/06/11 00:19:03;;;;;;;16.30;9.80;;;19.20;40.20;;;;;;4996089;28;20420;-76
2021/06/11 00:21:29;;;;;;;13.35;10.98;;;19.10;41.70;;;;;;5015535;28;20393;-76
2021/06/11 00:23:54;;;;;;;16.00;9.98;;;19.20;42.20;;;;;;5015260;28;20392;-77
2021/06/11 00:26:20;;;;;;;17.48;10.40;;;19.10;43.50;;;;;;4996662;28;20393;-75
2021/06/11 00:28:46;;;;;;;16.13;9.95;;;18.90;44.20;;;;;;5013590;28;20393;-75
2021/06/11 00:31:12;;;;;;;13.32;9.68;;;18.90;45.00;;;;;;5014197;28;20870;-76
2021/06/11 00:33:37;;;;;;;13.20;9.50;;;18.80;45.70;;;;;;5014047;28;20420;-76
2021/06/11 00:36:03;;;;;;;19.50;10.97;;;18.80;45.50;;;;;;5014356;28;20393;-75
2021/06/11 00:38:31;;;;;;;16.27;10.05;;;18.80;45.40;;;;;;5016559;28;20587;-76
2021/06/11 00:40:57;;;;;;;14.00;10.63;;;18.80;45.30;;;;;;5026585;28;20532;-76
2021/06/11 00:43:22;;;;;;;15.52;10.27;;;18.80;45.20;;;;;;5029757;28;20419;-75
2021/06/11 00:45:48;;;;;;;16.53;11.30;;;19.00;44.60;;;;;;5037334;28;20434;-77
2021/06/11 00:48:13;;;;;;;14.90;10.70;;;18.90;45.10;;;;;;5038363;28;20383;-75
2021/06/11 00:50:39;;;;;;;19.33;11.30;;;18.80;45.80;;;;;;5032935;28;20461;-76
2021/06/11 00:53:10;;;;;;;17.38;11.05;;;18.90;45.50;;;;;;5030659;28;20465;-76
2021/06/11 00:55:37;;;;;;;15.45;11.43;;;18.90;45.50;;;;;;5032018;28;20386;-75
2021/06/11 00:58:03;;;;;;;16.08;10.85;;;18.90;45.50;;;;;;5015692;28;20770;-77
2021/06/11 01:00:29;;;;;;;16.30;11.47;;;18.80;45.70;;;;;;5016171;28;20717;-76
2021/06/11 01:02:55;;;;;;;19.48;11.40;;;18.70;46.90;;;;;;5015514;28;20392;-76
2021/06/11 01:05:20;;;;;;;18.85;12.18;;;18.50;48.80;;;;;;5015512;28;20389;-76
2021/06/11 01:07:50;;;;;;;19.33;11.40;;;18.50;49.50;;;;;;5015605;28;20385;-77
2021/06/11 01:10:17;;;;;;;17.50;10.85;;;18.40;49.50;;;;;;4997309;28;20444;-77
2021/06/11 01:12:43;;;;;;;19.38;11.07;;;18.50;49.20;;;;;;5014823;28;20442;-76
2021/06/11 01:15:10;;;;;;;19.20;11.60;;;18.50;49.00;;;;;;5015796;28;20389;-77
2021/06/11 01:17:36;;;;;;;15.57;10.95;;;18.50;48.80;;;;;;5015301;28;20429;-77
2021/06/11 01:20:06;;;;;;;16.63;11.70;;;18.60;48.10;;;;;;5013775;28;20389;-76
2021/06/11 01:22:59;;;;;;;18.08;11.85;;;18.60;47.60;;;;;;5011830;28;20403;-77
2021/06/11 01:25:35;;;;;;;17.00;11.15;;;18.60;47.10;;;;;;5013321;28;20395;-77
2021/06/11 01:28:03;;;;;;;16.35;11.57;;;18.50;47.70;;;;;;5013567;28;20472;-77
2021/06/11 01:30:30;;;;;;;16.30;11.80;;;18.50;48.40;;;;;;4995495;28;20897;-77
2021/06/11 01:32:58;;;;;;;16.67;11.30;;;18.30;49.30;;;;;;5012648;28;20496;-77
2021/06/11 01:35:39;;;;;;;18.08;11.52;;;18.20;51.20;;;;;;5012338;28;20385;-76
2021/06/11 01:38:06;;;;;;;18.40;11.80;;;18.10;51.90;;;;;;5018692;28;20425;-75
2021/06/11 01:40:34;;;;;;;17.50;11.75;;;18.00;52.10;;;;;;5021414;28;20774;-77
2021/06/11 01:43:02;;;;;;;20.90;11.70;;;18.00;52.80;;;;;;5024294;28;20395;-75
2021/06/11 01:45:29;;;;;;;17.77;11.73;;;17.80;54.60;;;;;;5032695;28;20424;-76
2021/06/11 01:47:58;;;;;;;15.57;11.15;;;17.80;55.50;;;;;;5032984;28;20391;-76
2021/06/11 01:50:30;;;;;;;18.92;11.63;;;17.90;55.00;;;;;;5032132;28;20454;-76
2021/06/11 01:52:58;;;;;;;17.13;11.53;;;17.90;54.80;;;;;;5026051;28;20502;-77
2021/06/11 01:55:26;;;;;;;18.30;12.43;;;17.90;54.60;;;;;;5012708;28;20401;-77
2021/06/11 01:57:52;;;;;;;16.35;11.25;;;17.80;55.10;;;;;;5013117;28;20952;-77
2021/06/11 02:00:18;;;;;;;18.15;12.60;;;17.60;57.30;;;;;;5012839;28;20416;-78
2021/06/11 02:02:45;;;;;;;18.15;12.55;;;17.50;58.30;;;;;;4995060;28;20501;-77
2021/06/11 02:05:11;;;;;;;15.20;11.80;;;17.60;57.90;;;;;;5013567;28;20403;-76
2021/06/11 02:07:37;;;;;;;13.90;11.30;;;17.50;59.10;;;;;;5013041;28;20416;-78
2021/06/11 02:10:04;;;;;;;14.20;11.70;;;17.60;57.30;;;;;;4992282;28;20408;-76
2021/06/11 02:12:30;;;;;;;19.70;11.73;;;17.60;58.00;;;;;;5008562;28;20381;-77
2021/06/11 02:14:56;;;;;;;16.90;12.23;;;17.70;57.50;;;;;;5012542;28;20384;-77
2021/06/11 02:17:22;;;;;;;22.25;12.50;;;17.60;58.00;;;;;;5013096;28;20381;-76
2021/06/11 02:19:48;;;;;;;16.05;12.20;;;17.70;58.10;;;;;;4995758;28;20728;-75
2021/06/11 02:22:15;;;;;;;17.95;12.85;;;17.70;58.00;;;;;;5011747;28;20401;-78
2021/06/11 02:24:41;;;;;;;19.38;12.00;;;17.40;59.50;;;;;;5013945;28;20403;-77
2021/06/11 02:27:08;;;;;;;14.85;11.80;;;17.30;61.20;;;;;;5014526;28;20389;-77
2021/06/11 02:29:34;;;;;;;18.65;12.60;;;17.30;62.20;;;;;;5013311;28;20389;-76
2021/06/11 02:32:01;;;;;;;17.85;13.32;;;17.40;61.70;;;;;;5013279;28;20428;-76
2021/06/11 02:34:27;;;;;;;16.52;11.82;;;17.50;60.50;;;;;;4995478;28;20463;-75
2021/06/11 02:36:52;;;;;;;21.30;12.13;;;17.40;60.80;;;;;;5008730;28;20765;-76
2021/06/11 02:39:18;;;;;;;16.80;11.90;;;17.30;62.00;;;;;;5016134;28;20749;-77
2021/06/11 02:41:48;;;;;;;16.88;12.02;;;17.20;63.20;;;;;;5020985;28;20389;-76
2021/06/11 02:44:14;;;;;;;19.13;12.98;;;17.20;64.30;;;;;;5029849;28;20375;-76
2021/06/11 02:46:47;;;;;;;16.50;12.57;;;17.20;63.70;;;;;;5033669;28;21018;-76
2021/06/11 02:49:24;;;;;;;16.20;12.48;;;17.30;63.70;;;;;;5029193;28;20428;-76
2021/06/11 02:51:51;;;;;;;15.60;11.65;;;17.40;63.40;;;;;;5014321;28;20815;-75
2021/06/11 02:54:28;;;;;;;17.25;12.85;;;17.50;62.70;;;;;;5013390;28;20405;-76
2021/06/11 02:56:58;;;;;;;18.85;13.00;;;17.40;63.20;;;;;;5013681;28;20412;-76
2021/06/11 02:59:33;;;;;;;23.20;13.05;;;17.40;64.10;;;;;;5013774;28;20725;-76
2021/06/11 03:02:04;;;;;;;20.98;13.05;;;17.40;64.80;;;;;;5013870;28;20381;-76
2021/06/11 03:04:31;;;;;;;23.52;12.68;;;17.40;64.70;;;;;;5012680;28;20397;-76
2021/06/11 03:06:58;;;;;;;17.67;12.30;;;17.50;64.40;;;;;;4995924;28;20420;-75
2021/06/11 03:09:26;;;;;;;16.30;11.90;;;17.50;64.50;;;;;;5000994;28;20394;-75
2021/06/11 03:11:55;;;;;;;18.45;11.63;;;17.40;65.90;;;;;;5002799;28;20877;-76
2021/06/11 03:14:21;;;;;;;18.80;12.35;;;17.40;65.70;;;;;;5013269;28;20419;-76
2021/06/11 03:16:49;;;;;;;17.85;12.20;;;17.20;67.60;;;;;;5013660;28;20392;-76
2021/06/11 03:19:18;;;;;;;17.20;12.50;;;17.00;70.20;;;;;;5016417;28;20396;-76
2021/06/11 03:21:48;;;;;;;17.05;11.27;;;16.90;71.80;;;;;;5019985;28;20400;-76
2021/06/11 03:24:29;;;;;;;18.33;12.95;;;16.80;73.00;;;;;;5020093;28;20395;-76
2021/06/11 03:27:08;;;;;;;17.40;11.95;;;16.80;73.50;;;;;;5014462;28;20446;-76
2021/06/11 03:29:50;;;;;;;20.05;12.75;;;16.70;74.40;;;;;;5012262;28;20400;-76
2021/06/11 03:32:25;;;;;;;14.80;11.70;;;16.60;74.50;;;;;;5013037;28;20403;-76
2021/06/11 03:34:54;;;;;;;15.00;10.90;;;16.60;76.20;;;;;;5013551;28;20951;-76
2021/06/11 03:37:21;;;;;;;16.60;11.48;;;16.60;75.90;;;;;;5008279;28;20742;-76
2021/06/11 03:39:57;;;;;;;15.95;10.73;;;16.50;76.50;;;;;;5025406;28;20406;-76
2021/06/11 03:42:24;;;;;;;16.50;11.13;;;16.50;76.80;;;;;;5004880;28;20395;-75
2021/06/11 03:44:51;;;;;;;14.70;11.63;;;16.50;77.70;;;;;;5034982;28;20402;-75
2021/06/11 03:47:23;;;;;;;22.27;12.20;;;16.40;78.00;;;;;;5017760;28;20754;-75
2021/06/11 03:49:52;;;;;;;16.48;11.70;;;16.50;78.20;;;;;;5014348;28;20439;-75
2021/06/11 03:52:24;;;;;;;17.88;11.93;;;16.50;77.80;;;;;;5014601;28;20906;-76
2021/06/11 03:54:53;;;;;;;15.73;12.02;;;16.50;77.80;;;;;;5016039;28;20504;-76
2021/06/11 03:57:20;;;;;;;21.65;14.55;;;16.70;77.60;;;;;;4996038;28;20890;-75
2021/06/11 03:59:47;;;;;;;18.33;13.38;;;17.10;77.20;;;;;;5012525;28;20408;-76
2021/06/11 04:02:15;;;;;;;61.77;40.20;;;17.20;76.50;;;;;;5012999;28;20385;-75
2021/06/11 04:04:41;;;;;;;23.42;15.00;;;17.20;77.10;;;;;;4994909;28;20896;-76
2021/06/11 04:07:16;;;;;;;60.30;42.23;;;17.40;77.50;;;;;;4997347;28;20416;-74
2021/06/11 04:09:53;;;;;;;71.00;52.23;;;17.40;78.40;;;;;;5009269;28;20428;-77
2021/06/11 04:12:32;;;;;;;29.13;20.50;;;17.40;80.90;;;;;;5012925;28;20397;-75
2021/06/11 04:14:58;;;;;;;71.05;47.13;;;17.50;81.60;;;;;;5012287;28;20793;-76
2021/06/11 04:17:27;;;;;;;47.67;31.63;;;17.60;81.60;;;;;;4994697;28;20396;-76
2021/06/11 04:19:56;;;;;;;31.90;22.05;;;17.70;81.90;;;;;;5013043;28;20377;-77
2021/06/11 04:22:26;;;;;;;44.00;27.02;;;17.80;80.90;;;;;;5013794;28;20457;-76
2021/06/11 04:24:53;;;;;;;33.67;22.00;;;17.80;81.00;;;;;;4995877;28;20391;-76
2021/06/11 04:27:19;;;;;;;34.10;21.65;;;17.90;81.00;;;;;;4995490;28;20906;-76
2021/06/11 04:29:47;;;;;;;30.93;17.53;;;18.10;78.00;;;;;;4997283;28;20406;-76
2021/06/11 04:32:12;;;;;;;33.30;21.15;;;18.10;78.30;;;;;;4996106;28;20387;-76
2021/06/11 04:34:38;;;;;;;32.10;23.17;;;18.10;78.50;;;;;;4995417;28;20425;-75
2021/06/11 04:37:04;;;;;;;28.13;20.13;;;18.20;77.30;;;;;;4997033;28;20738;-75
2021/06/11 04:39:29;;;;;;;26.00;18.50;;;18.30;76.90;;;;;;5005753;28;20786;-76
2021/06/11 04:41:55;;;;;;;32.47;19.77;;;18.20;77.20;;;;;;5023124;28;20395;-76
2021/06/11 04:44:23;;;;;;;28.73;20.33;;;18.30;76.40;;;;;;5010564;28;20758;-76
2021/06/11 04:46:48;;;;;;;26.92;18.65;;;18.40;75.90;;;;;;5011614;28;20744;-76
2021/06/11 04:49:14;;;;;;;27.77;18.80;;;18.50;75.40;;;;;;5011900;28;20480;-76
2021/06/11 04:51:40;;;;;;;25.97;17.67;;;18.70;73.50;;;;;;4994108;28;20416;-76
2021/06/11 04:54:06;;;;;;;28.40;17.50;;;18.60;73.70;;;;;;5012668;28;20435;-77
2021/06/11 04:56:31;;;;;;;45.75;31.95;;;18.70;73.30;;;;;;5017433;28;20449;-75
2021/06/11 04:58:58;;;;;;;24.63;17.10;;;18.70;73.50;;;;;;5017923;28;20417;-75
2021/06/11 05:01:24;;;;;;;28.75;18.55;;;19.00;71.30;;;;;;5015195;28;20389;-76
2021/06/11 05:03:50;;;;;;;40.23;26.50;;;19.10;70.20;;;;;;5013006;28;20392;-77
2021/06/11 05:06:16;;;;;;;23.95;15.77;;;19.10;70.80;;;;;;5013387;28;20791;-77
2021/06/11 05:08:42;;;;;;;61.88;45.22;;;19.30;67.30;;;;;;5006203;28;20449;-78
2021/06/11 05:11:08;;;;;;;57.58;39.25;;;19.20;67.80;;;;;;4996389;28;20878;-77
2021/06/11 05:13:33;;;;;;;25.77;16.58;;;19.20;67.80;;;;;;5010951;28;20409;-76
2021/06/11 05:15:59;;;;;;;45.43;28.27;;;19.20;68.10;;;;;;5011361;28;20389;-76
2021/06/11 05:18:26;;;;;;;34.23;25.73;;;19.30;67.50;;;;;;5009863;28;20434;-76
2021/06/11 05:20:52;;;;;;;27.30;15.37;;;19.50;66.00;;;;;;5009638;28;20401;-76
2021/06/11 05:23:19;;;;;;;27.10;16.23;;;19.50;65.40;;;;;;5010862;28;20385;-76
2021/06/11 05:25:46;;;;;;;25.05;16.45;;;19.50;65.20;;;;;;5010738;28;20380;-76
2021/06/11 05:28:11;;;;;;;24.00;17.20;;;19.40;65.60;;;;;;5010809;28;20453;-76
2021/06/11 05:30:37;;;;;;;29.60;18.03;;;19.50;65.00;;;;;;5010812;28;20396;-77
2021/06/11 05:33:03;;;;;;;36.60;18.77;;;19.70;63.40;;;;;;5010184;28;20442;-76
2021/06/11 05:35:29;;;;;;;29.42;18.92;;;19.90;61.70;;;;;;5012218;28;20420;-75
2021/06/11 05:37:58;;;;;;;25.23;18.43;;;19.90;61.80;;;;;;5010655;28;20439;-77
2021/06/11 05:40:23;;;;;;;28.55;18.75;;;19.90;62.20;;;;;;5003260;28;20393;-77
2021/06/11 05:42:49;;;;;;;31.20;21.33;;;19.90;62.40;;;;;;5022475;28;20409;-77
2021/06/11 05:45:15;;;;;;;26.00;18.40;;;19.90;62.40;;;;;;5032883;28;20906;-77
2021/06/11 05:47:41;;;;;;;28.33;18.27;;;20.10;60.20;;;;;;5025800;28;20406;-75
2021/06/11 05:50:08;;;;;;;27.50;17.80;;;20.50;57.30;;;;;;4993937;28;20400;-77
2021/06/11 05:52:35;;;;;;;32.08;18.92;;;20.50;56.80;;;;;;4977863;28;20384;-77
2021/06/11 05:55:04;;;;;;;28.60;20.10;;;20.70;55.60;;;;;;5013918;28;20387;-76
2021/06/11 05:57:30;;;;;;;41.42;27.05;;;20.70;53.40;;;;;;4996686;28;20393;-76
2021/06/11 05:59:57;;;;;;;30.10;19.30;;;20.70;54.00;;;;;;4996392;28;20396;-77
2021/06/11 06:02:23;;;;;;;33.22;20.27;;;20.60;53.30;;;;;;5022977;28;20392;-78
2021/06/11 06:04:49;;;;;;;36.42;20.70;;;20.60;53.90;;;;;;4996114;28;20401;-76
2021/06/11 06:07:15;;;;;;;27.95;19.60;;;20.50;54.30;;;;;;5010856;28;20385;-76
2021/06/11 06:09:41;;;;;;;34.37;20.30;;;20.60;54.20;;;;;;4997263;28;20915;-77
2021/06/11 06:12:07;;;;;;;31.98;21.70;;;20.70;53.50;;;;;;5002810;28;20395;-79
2021/06/11 06:14:33;;;;;;;33.78;20.70;;;20.70;53.60;;;;;;5012510;28;20423;-77
2021/06/11 06:16:59;;;;;;;30.10;21.07;;;20.80;53.20;;;;;;5013017;28;20928;-77
2021/06/11 06:19:25;;;;;;;30.47;20.70;;;20.80;52.80;;;;;;5014289;28;20376;-76
2021/06/11 06:21:51;;;;;;;31.25;21.05;;;20.80;51.90;;;;;;5014906;28;20385;-77
2021/06/11 06:24:17;;;;;;;33.38;20.98;;;20.90;51.50;;;;;;5016176;28;20388;-76
2021/06/11 06:26:42;;;;;;;36.88;21.50;;;21.30;48.10;;;;;;5013977;28;20487;-76
2021/06/11 06:29:08;;;;;;;33.53;21.90;;;21.30;47.90;;;;;;5014144;28;20873;-77
2021/06/11 06:31:34;;;;;;;35.35;21.63;;;21.30;48.00;;;;;;5014066;28;20947;-76
2021/06/11 06:33:59;;;;;;;33.17;22.20;;;21.20;48.40;;;;;;5016796;28;20408;-77
2021/06/11 06:36:25;;;;;;;36.00;21.90;;;21.20;48.50;;;;;;5017290;28;20456;-77
2021/06/11 06:38:56;;;;;;;33.35;21.42;;;21.40;47.40;;;;;;5016825;28;20397;-76
2021/06/11 06:41:22;;;;;;;36.35;22.33;;;21.60;45.50;;;;;;5028293;28;20753;-75
2021/06/11 06:43:48;;;;;;;35.05;22.27;;;21.60;44.30;;;;;;5026922;28;20387;-78
2021/06/11 06:46:16;;;;;;;37.40;21.63;;;21.60;44.10;;;;;;5021834;28;20400;-77
2021/06/11 06:48:41;;;;;;;43.60;22.98;;;21.60;44.50;;;;;;5025574;28;20393;-77
2021/06/11 06:51:09;;;;;;;39.38;22.73;;;22.00;42.00;;;;;;5010240;28;20421;-76
2021/06/11 06:53:34;;;;;;;37.17;22.85;;;22.10;42.00;;;;;;5026096;28;20404;-76
2021/06/11 06:56:00;;;;;;;47.78;24.30;;;22.00;44.00;;;;;;5024228;28;20428;-76
2021/06/11 06:58:26;;;;;;;42.13;22.95;;;21.80;42.60;;;;;;5027023;28;20400;-76
2021/06/11 07:00:51;;;;;;;36.07;21.60;;;21.80;46.60;;;;;;5030340;28;20515;-76
2021/06/11 07:03:17;;;;;;;36.40;22.07;;;21.80;44.30;;;;;;5025992;28;20416;-76
2021/06/11 07:05:43;;;;;;;37.08;21.63;;;21.90;44.00;;;;;;5029013;28;20384;-77
2021/06/11 07:08:08;;;;;;;33.72;20.73;;;21.90;44.20;;;;;;4998957;28;20428;-76
2021/06/11 07:10:34;;;;;;;35.07;21.77;;;22.00;43.00;;;;;;4996857;28;20437;-78
2021/06/11 07:12:59;;;;;;;33.42;21.95;;;22.00;41.60;;;;;;5002200;28;20474;-78
2021/06/11 07:15:25;;;;;;;34.97;22.00;;;22.10;41.40;;;;;;5017097;28;20401;-77
2021/06/11 07:17:55;;;;;;;32.73;20.80;;;22.20;41.20;;;;;;5017357;28;20389;-76
2021/06/11 07:20:21;;;;;;;32.05;20.80;;;22.20;39.80;;;;;;5019430;28;20467;-78
2021/06/11 07:22:47;;;;;;;31.17;19.60;;;22.30;39.70;;;;;;5015080;28;20562;-77
2021/06/11 07:25:13;;;;;;;28.93;18.47;;;22.50;39.80;;;;;;5010839;28;20510;-76
2021/06/11 07:27:38;;;;;;;39.75;18.85;;;22.50;39.50;;;;;;5008826;28;20962;-77
2021/06/11 07:30:06;;;;;;;28.67;20.00;;;22.70;38.40;;;;;;5011410;28;20397;-75
2021/06/11 07:32:32;;;;;;;33.55;20.48;;;22.70;38.70;;;;;;5012770;28;20456;-75
2021/06/11 07:34:58;;;;;;;31.23;20.07;;;22.70;37.20;;;;;;4996956;28;20484;-75
2021/06/11 07:37:23;;;;;;;28.27;18.97;;;22.70;37.40;;;;;;5007838;28;20408;-76
2021/06/11 07:39:49;;;;;;;29.88;18.60;;;22.60;35.90;;;;;;5018669;28;20890;-76
2021/06/11 07:42:15;;;;;;;31.23;20.02;;;22.80;35.60;;;;;;5023142;28;20385;-75
2021/06/11 07:44:41;;;;;;;27.07;17.90;;;22.70;36.50;;;;;;5012447;28;20880;-76
2021/06/11 07:47:07;;;;;;;26.17;17.92;;;22.80;37.40;;;;;;5012693;28;20465;-76
2021/06/11 07:49:33;;;;;;;27.02;17.60;;;22.90;35.20;;;;;;5011668;28;20409;-77
2021/06/11 07:51:59;;;;;;;25.42;17.30;;;22.80;33.60;;;;;;5012415;28;20405;-77
2021/06/11 07:54:25;;;;;;;29.52;19.00;;;23.00;33.40;;;;;;5011935;28;20936;-74
2021/06/11 07:56:51;;;;;;;23.02;15.48;;;23.10;32.90;;;;;;5012248;28;20440;-76
2021/06/11 07:59:17;;;;;;;21.25;14.98;;;23.10;32.80;;;;;;5010923;28;20758;-76
2021/06/11 08:01:43;;;;;;;24.40;16.65;;;23.00;33.10;;;;;;5002639;28;20492;-75
2021/06/11 08:04:09;;;;;;;24.38;16.98;;;22.90;34.90;;;;;;5012434;28;20421;-76
2021/06/11 08:06:35;;;;;;;25.40;15.40;;;22.90;35.30;;;;;;5011925;28;20408;-77
2021/06/11 08:09:00;;;;;;;21.80;15.73;;;23.00;32.70;;;;;;5018186;28;20401;-76
2021/06/11 08:11:26;;;;;;;25.00;15.30;;;23.10;32.80;;;;;;5016109;28;20397;-75
2021/06/11 08:13:51;;;;;;;22.07;15.97;;;23.30;35.10;;;;;;5013476;28;20412;-77
2021/06/11 08:16:17;;;;;;;23.52;15.50;;;23.40;32.10;;;;;;5019612;28;20456;-75
2021/06/11 08:18:43;;;;;;;21.27;15.47;;;23.20;33.30;;;;;;5016224;28;20512;-76
2021/06/11 08:21:08;;;;;;;22.25;15.00;;;23.20;34.20;;;;;;5012009;28;20452;-76
2021/06/11 08:23:34;;;;;;;24.83;15.27;;;23.20;32.40;;;;;;5011524;28;20820;-77
2021/06/11 08:25:59;;;;;;;29.17;16.87;;;23.10;34.70;;;;;;5010817;28;20971;-75
2021/06/11 08:28:25;;;;;;;26.58;17.10;;;23.10;33.80;;;;;;5007587;28;20766;-76
2021/06/11 08:30:51;;;;;;;23.48;16.05;;;23.30;33.40;;;;;;4992009;28;20391;-76
2021/06/11 08:33:16;;;;;;;21.50;15.60;;;23.60;31.50;;;;;;4984802;28;20420;-76
2021/06/11 08:35:43;;;;;;;30.92;18.63;;;23.70;32.20;;;;;;4977391;28;21380;-75
2021/06/11 08:38:09;;;;;;;22.80;17.13;;;23.50;32.60;;;;;;4996030;28;20423;-76
2021/06/11 08:40:34;;;;;;;25.40;17.98;;;23.60;32.80;;;;;;4998312;28;20404;-76
2021/06/11 08:43:00;;;;;;;26.00;17.17;;;23.70;31.80;;;;;;5020703;28;20393;-76
2021/06/11 08:45:26;;;;;;;26.60;16.98;;;23.90;32.70;;;;;;5013521;28;20747;-76
2021/06/11 08:47:53;;;;;;;27.20;18.63;;;23.80;31.70;;;;;;5003541;28;20401;-77
2021/06/11 08:50:34;;;;;;;23.20;16.65;;;23.50;31.80;;;;;;5012056;28;20855;-75
2021/06/11 08:53:03;;;;;;;29.95;18.13;;;23.60;33.30;;;;;;5011434;28;20616;-77
2021/06/11 08:55:29;;;;;;;24.08;18.25;;;23.60;33.60;;;;;;5011682;28;20400;-77
2021/06/11 08:57:55;;;;;;;26.45;18.30;;;23.80;31.50;;;;;;5011825;28;20388;-76
2021/06/11 09:00:22;;;;;;;24.65;18.00;;;24.00;30.60;;;;;;5011304;28;20380;-76
2021/06/11 09:03:17;;;;;;;24.83;17.48;;;24.00;29.40;;;;;;5011949;28;20423;-76
2021/06/11 09:05:45;;;;;;;25.40;17.90;;;24.20;30.10;;;;;;5012376;28;20392;-77
2021/06/11 09:08:11;;;;;;;26.35;18.48;;;24.20;30.20;;;;;;5012183;28;20399;-76
2021/06/11 09:10:36;;;;;;;25.52;18.38;;;23.90;30.50;;;;;;5004544;28;20400;-76
2021/06/11 09:13:02;;;;;;;30.08;18.60;;;23.80;30.90;;;;;;5011385;28;20462;-76
2021/06/11 09:15:28;;;;;;;30.03;17.87;;;23.80;31.90;;;;;;5008545;28;20436;-74
2021/06/11 09:17:53;;;;;;;28.10;20.23;;;23.70;32.10;;;;;;5009852;28;20454;-75
2021/06/11 09:20:22;;;;;;;29.52;18.95;;;23.80;31.10;;;;;;4997354;28;20453;-76
2021/06/11 09:22:51;;;;;;;25.98;16.42;;;24.00;29.30;;;;;;5005610;28;20877;-75
2021/06/11 09:25:28;;;;;;;26.10;16.85;;;24.20;29.40;;;;;;5010330;28;20393;-74
2021/06/11 09:27:57;;;;;;;21.88;17.00;;;24.50;28.20;;;;;;5010701;28;20443;-75
2021/06/11 09:30:28;;;;;;;24.77;16.85;;;24.70;27.10;;;;;;5010396;28;20377;-75
2021/06/11 09:33:14;;;;;;;24.30;17.05;;;25.20;26.40;;;;;;5004764;28;20517;-75
2021/06/11 09:35:53;;;;;;;23.65;17.13;;;25.20;25.00;;;;;;5010556;28;20408;-78
2021/06/11 09:38:19;;;;;;;23.35;16.35;;;25.40;23.90;;;;;;4996043;28;20430;-76
2021/06/11 09:40:48;;;;;;;23.25;16.40;;;25.80;23.70;;;;;;5000160;28;20403;-75
2021/06/11 09:43:14;;;;;;;21.30;14.88;;;25.90;23.10;;;;;;5018897;28;20527;-75
2021/06/11 09:45:41;;;;;;;20.15;15.32;;;25.70;24.60;;;;;;4990381;28;20427;-74
2021/06/11 09:48:39;;;;;;;22.38;16.90;;;25.50;24.20;;;;;;5002871;28;21816;-73
2021/06/11 09:51:23;;;;;;;25.13;17.67;;;25.10;26.40;;;;;;4991154;28;20450;-74
2021/06/11 09:53:49;;;;;;;27.75;18.67;;;24.90;27.00;;;;;;4995982;28;20469;-74
2021/06/11 09:56:22;;;;;;;25.10;16.35;;;25.00;27.20;;;;;;5017043;28;20787;-73
2021/06/11 09:58:48;;;;;;;21.67;15.13;;;24.80;27.30;;;;;;5017831;28;20396;-74
2021/06/11 10:01:14;;;;;;;20.80;15.38;;;24.60;28.40;;;;;;5015231;28;20404;-74
2021/06/11 10:03:46;;;;;;;25.52;13.70;;;24.50;28.10;;;;;;5000137;28;20408;-76
2021/06/11 10:06:13;;;;;;;21.23;14.23;;;24.70;28.00;;;;;;5017676;28;20881;-74
2021/06/11 10:08:41;;;;;;;18.83;13.83;;;25.10;26.80;;;;;;4996351;28;20459;-74
2021/06/11 10:11:09;;;;;;;20.67;14.75;;;25.60;24.40;;;;;;5014122;28;20388;-74
2021/06/11 10:13:36;;;;;;;22.40;14.20;;;25.50;23.90;;;;;;5013805;28;20413;-74
2021/06/11 10:16:14;;;;;;;21.70;15.30;;;25.70;23.70;;;;;;5014013;28;20487;-74
2021/06/11 10:18:40;;;;;;;23.90;13.88;;;25.90;23.50;;;;;;5013950;28;20597;-75
2021/06/11 10:21:06;;;;;;;19.42;13.68;;;25.60;25.00;;;;;;5014151;28;20385;-75
2021/06/11 10:23:34;;;;;;;18.83;13.10;;;25.30;26.60;;;;;;5013844;28;20472;-75
2021/06/11 10:26:02;;;;;;;21.80;13.50;;;25.20;25.50;;;;;;4996233;28;20385;-74
2021/06/11 10:28:38;;;;;;;21.50;13.65;;;25.30;25.10;;;;;;5013961;28;20815;-76
2021/06/11 10:31:06;;;;;;;23.05;14.50;;;25.40;25.00;;;;;;5013454;28;20451;-74
2021/06/11 10:33:44;;;;;;;17.98;12.55;;;25.60;23.70;;;;;;5013176;28;20483;-75
2021/06/11 10:36:25;;;;;;;19.85;12.07;;;25.70;22.80;;;;;;5015200;28;20408;-75
2021/06/11 10:39:18;;;;;;;16.48;10.93;;;25.90;22.30;;;;;;5016484;28;20401;-74
2021/06/11 10:42:09;;;;;;;17.17;10.52;;;25.90;22.40;;;;;;5014522;28;20397;-74
2021/06/11 10:44:50;;;;;;;13.43;10.68;;;25.80;22.40;;;;;;5010460;28;20409;-75
2021/06/11 10:47:16;;;;;;;14.93;10.50;;;26.20;22.00;;;;;;5013560;28;20389;-75
2021/06/11 10:50:01;;;;;;;16.80;11.57;;;26.50;20.00;;;;;;5013532;28;20392;-74
2021/06/11 10:52:34;;;;;;;14.57;10.00;;;26.30;19.80;;;;;;5013125;28;20404;-75
2021/06/11 10:55:18;;;;;;;9.32;8.00;;;26.40;19.50;;;;;;5013019;28;20439;-75
2021/06/11 10:57:44;;;;;;;15.73;8.13;;;26.70;18.80;;;;;;5013622;28;20396;-74
2021/06/11 11:00:34;;;;;;;16.35;9.43;;;27.10;18.40;;;;;;5013042;28;20426;-73
2021/06/11 11:03:02;;;;;;;16.30;10.20;;;27.30;18.20;;;;;;4992906;28;20486;-74
2021/06/11 11:05:39;;;;;;;12.43;9.57;;;27.30;18.20;;;;;;4992968;28;20474;-74
2021/06/11 11:08:07;;;;;;;12.05;8.85;;;27.10;18.30;;;;;;4995076;28;20397;-74
2021/06/11 11:10:39;;;;;;;12.73;9.70;;;27.30;17.70;;;;;;5012775;28;20420;-75
2021/06/11 11:13:07;;;;;;;11.50;9.70;;;27.50;16.40;;;;;;4992973;28;20435;-73
2021/06/11 11:15:38;;;;;;;10.55;8.45;;;27.60;16.70;;;;;;4995833;28;20769;-74
2021/06/11 11:18:06;;;;;;;13.73;9.80;;;27.90;16.90;;;;;;5012747;28;20392;-75
2021/06/11 11:20:36;;;;;;;13.52;9.70;;;28.20;15.80;;;;;;4995219;28;20396;-75
2021/06/11 11:23:05;;;;;;;15.00;11.40;;;28.10;16.20;;;;;;4995319;28;20404;-74
2021/06/11 11:25:32;;;;;;;12.02;10.82;;;27.40;17.30;;;;;;5013203;28;20451;-74
2021/06/11 11:27:59;;;;;;;13.70;11.15;;;27.50;17.20;;;;;;5012860;28;20854;-74
2021/06/11 11:30:27;;;;;;;17.75;13.00;;;27.50;17.00;;;;;;5012631;28;20940;-75
2021/06/11 11:32:55;;;;;;;12.43;9.38;;;27.40;16.40;;;;;;5012483;28;20393;-75
2021/06/11 11:35:26;;;;;;;15.25;9.80;;;27.30;16.40;;;;;;4995028;28;20901;-73
2021/06/11 11:37:53;;;;;;;11.30;9.50;;;27.60;15.70;;;;;;5011808;28;20387;-75
2021/06/11 11:40:19;;;;;;;12.35;10.90;;;27.70;16.80;;;;;;5021461;28;20791;-75
2021/06/11 11:42:45;;;;;;;15.75;10.80;;;27.40;15.90;;;;;;5023846;28;20450;-75
2021/06/11 11:45:12;;;;;;;13.50;8.77;;;27.30;16.50;;;;;;5023304;28;20512;-75
2021/06/11 11:47:38;;;;;;;10.77;9.18;;;27.30;17.30;;;;;;4994658;28;20401;-74
2021/06/11 11:50:19;;;;;;;12.48;9.55;;;27.60;16.80;;;;;;4996475;28;20393;-75
2021/06/11 11:52:45;;;;;;;12.07;8.45;;;27.40;16.20;;;;;;5014525;28;20440;-74
2021/06/11 11:55:11;;;;;;;10.55;8.90;;;27.60;15.70;;;;;;4994537;28;20893;-74
2021/06/11 11:57:41;;;;;;;12.35;8.45;;;27.30;16.70;;;;;;5012271;28;20400;-75
2021/06/11 12:00:07;;;;;;;17.53;9.57;;;27.30;16.70;;;;;;5011893;28;20444;-74
2021/06/11 12:02:33;;;;;;;11.18;8.70;;;27.40;17.40;;;;;;5012099;28;20419;-74
2021/06/11 12:04:58;;;;;;;13.23;8.30;;;27.40;15.50;;;;;;5012622;28;20389;-75
2021/06/11 12:07:24;;;;;;;12.43;9.45;;;27.30;16.50;;;;;;5012254;28;20480;-75
2021/06/11 12:09:53;;;;;;;11.80;8.20;;;27.40;16.20;;;;;;4996406;28;20397;-75
2021/06/11 12:12:19;;;;;;;12.73;7.60;;;27.60;16.30;;;;;;5005150;28;20396;-75
2021/06/11 12:14:44;;;;;;;11.85;7.18;;;27.60;15.90;;;;;;5011393;28;20413;-75
2021/06/11 12:17:10;;;;;;;12.50;6.90;;;28.00;16.00;;;;;;5012200;28;20396;-75
2021/06/11 12:19:35;;;;;;;10.15;6.60;;;28.20;15.60;;;;;;5012088;28;20731;-76
2021/06/11 12:22:01;;;;;;;12.07;7.20;;;28.20;14.30;;;;;;5012125;28;20458;-74
2021/06/11 12:24:27;;;;;;;9.35;6.85;;;28.30;13.60;;;;;;5011465;28;20385;-76
2021/06/11 12:26:52;;;;;;;19.70;7.43;;;28.10;14.80;;;;;;4993928;28;20428;-75
2021/06/11 12:29:20;;;;;;;12.38;7.28;;;28.00;15.00;;;;;;5011453;28;20436;-76
2021/06/11 12:31:47;;;;;;;8.60;6.90;;;28.10;14.40;;;;;;5011619;28;20408;-74
2021/06/11 12:34:13;;;;;;;8.40;6.07;;;27.50;14.50;;;;;;4993603;28;20409;-74